Time;durP1;ratioP1;P1;durP2;ratioP2;P2;SDS_P1;SDS_P2;PMS_P1;PMS_P2;Temp;Humidity;BMP_temperature;BMP_pressure;BME280_temperature;BME280_humidity;BME280_pressure;Samples;Min_cycle;Max_cycle;Signal;HPM_P1;HPM_P2
2022/01/02 00:01:01;;;;;;;0.90;0.20;;;12.90;99.00;;;;;;9177315;19;20018;-75
2022/01/02 00:04:26;;;;;;;0.20;0.20;;;12.90;99.00;;;;;;9177355;19;20029;-76
2022/01/02 00:07:59;;;;;;;0.30;0.30;;;12.90;99.00;;;;;;9175479;19;20022;-75
2022/01/02 00:11:26;;;;;;;0.10;0.10;;;12.90;99.00;;;;;;9175815;19;20022;-74
2022/01/02 00:14:56;;;;;;;0.15;0.15;;;12.90;99.00;;;;;;9177396;19;20026;-73
2022/01/02 00:18:22;;;;;;;0.25;0.20;;;12.90;99.30;;;;;;9180032;19;20029;-75
2022/01/02 00:21:47;;;;;;;0.43;0.13;;;12.90;99.00;;;;;;9179951;19;20017;-74
2022/01/02 00:25:22;;;;;;;0.35;0.20;;;12.90;99.00;;;;;;9178041;19;20038;-74
2022/01/02 00:28:47;;;;;;;0.20;0.15;;;12.90;99.00;;;;;;9178669;19;20471;-73
2022/01/02 00:32:15;;;;;;;0.28;0.20;;;12.80;99.00;;;;;;9176539;19;20018;-73
2022/01/02 00:35:39;;;;;;;0.20;0.20;;;12.80;99.00;;;;;;9177824;19;20053;-73
2022/01/02 00:39:03;;;;;;;0.40;0.28;;;12.80;99.00;;;;;;9177293;19;20558;-73
2022/01/02 00:42:32;;;;;;;0.17;0.10;;;12.80;99.00;;;;;;9174693;19;20341;-73
2022/01/02 00:45:59;;;;;;;0.15;0.15;;;12.80;99.00;;;;;;9173164;19;20019;-72
2022/01/02 00:49:28;;;;;;;0.45;0.20;;;12.80;99.10;;;;;;9173260;19;20015;-72
2022/01/02 00:52:52;;;;;;;0.50;0.30;;;12.80;99.10;;;;;;9172698;19;20101;-71
2022/01/02 00:56:20;;;;;;;1.35;0.30;;;12.80;99.10;;;;;;9166920;19;20062;-72
2022/01/02 00:59:50;;;;;;;0.52;0.32;;;12.80;99.10;;;;;;9174263;19;20014;-72
2022/01/02 01:03:19;;;;;;;0.30;0.20;;;12.80;99.10;;;;;;9174076;19;20603;-72
2022/01/02 01:06:51;;;;;;;0.20;0.10;;;12.70;99.00;;;;;;9175172;19;20039;-72
2022/01/02 01:10:16;;;;;;;0.30;0.28;;;12.80;99.00;;;;;;9175453;19;20039;-71
2022/01/02 01:13:39;;;;;;;0.30;0.30;;;12.70;99.00;;;;;;9174887;19;20026;-72
2022/01/02 01:17:03;;;;;;;0.33;0.27;;;12.70;99.00;;;;;;9172102;19;20034;-72
2022/01/02 01:20:29;;;;;;;0.22;0.20;;;12.70;99.00;;;;;;9174350;19;20380;-72
2022/01/02 01:23:56;;;;;;;0.40;0.20;;;12.70;99.00;;;;;;9174768;19;20027;-72
2022/01/02 01:27:19;;;;;;;0.22;0.20;;;12.70;99.00;;;;;;9174283;19;20042;-72
2022/01/02 01:30:43;;;;;;;0.63;0.13;;;12.70;99.00;;;;;;9171521;19;20025;-72
2022/01/02 01:34:07;;;;;;;0.20;0.10;;;12.70;99.00;;;;;;9171656;19;20010;-72
2022/01/02 01:37:31;;;;;;;0.10;0.10;;;12.60;99.00;;;;;;9173568;19;20019;-72
2022/01/02 01:41:01;;;;;;;0.50;0.30;;;12.60;99.00;;;;;;9173054;19;20018;-72
2022/01/02 01:44:40;;;;;;;0.20;0.20;;;12.60;99.00;;;;;;9171325;19;20508;-72
2022/01/02 01:48:07;;;;;;;0.20;0.20;;;12.60;99.00;;;;;;9171249;19;20023;-72
2022/01/02 01:51:33;;;;;;;0.30;0.30;;;12.50;99.00;;;;;;9171927;19;20505;-72
2022/01/02 01:54:57;;;;;;;0.55;0.30;;;12.50;99.00;;;;;;9170511;19;20018;-72
2022/01/02 01:58:23;;;;;;;0.47;0.30;;;12.50;99.00;;;;;;9173767;19;20018;-72
2022/01/02 02:01:48;;;;;;;0.30;0.30;;;12.50;99.00;;;;;;9179527;19;20022;-73
2022/01/02 02:05:12;;;;;;;;;;;12.50;99.00;;;;;;9183242;19;20094;-72
2022/01/02 02:08:38;;;;;;;0.20;0.17;;;12.50;99.00;;;;;;9180350;19;19918;-73
2022/01/02 02:12:02;;;;;;;0.53;0.20;;;12.40;99.10;;;;;;9182144;19;20018;-73
2022/01/02 02:15:33;;;;;;;0.20;0.20;;;12.40;99.10;;;;;;9181526;19;21083;-73
2022/01/02 02:18:57;;;;;;;0.40;0.30;;;12.40;99.10;;;;;;9183114;19;20026;-73
2022/01/02 02:22:24;;;;;;;0.60;0.30;;;12.40;99.10;;;;;;9182857;19;20025;-72
2022/01/02 02:25:48;;;;;;;0.50;0.20;;;12.40;99.10;;;;;;9181997;19;20036;-73
2022/01/02 02:29:11;;;;;;;0.30;0.27;;;12.40;99.10;;;;;;9180591;19;20038;-72
2022/01/02 02:32:35;;;;;;;0.10;0.10;;;12.30;99.10;;;;;;9180195;19;20049;-73
2022/01/02 02:35:59;;;;;;;0.25;0.17;;;12.30;99.10;;;;;;9182055;19;20872;-73
2022/01/02 02:39:26;;;;;;;0.20;0.20;;;12.30;99.10;;;;;;9180669;19;20573;-73
2022/01/02 02:42:54;;;;;;;0.20;0.15;;;12.30;99.10;;;;;;9178343;19;20184;-73
2022/01/02 02:50:06;;;;;;;0.55;0.38;;;12.30;99.10;;;;;;9179053;19;20917;-73
2022/01/02 02:53:31;;;;;;;0.45;0.32;;;12.30;99.10;;;;;;9178072;19;20023;-72
2022/01/02 02:56:59;;;;;;;0.75;0.30;;;12.30;99.10;;;;;;9178565;19;20053;-73
2022/01/02 03:00:25;;;;;;;0.40;0.30;;;12.20;99.10;;;;;;9178562;19;20018;-73
2022/01/02 03:03:50;;;;;;;1.05;0.40;;;12.30;99.20;;;;;;9177972;19;20007;-73
2022/01/02 03:07:14;;;;;;;0.85;0.38;;;12.20;99.10;;;;;;9178396;19;20018;-74
2022/01/02 03:10:37;;;;;;;0.22;0.20;;;12.20;99.20;;;;;;9179561;19;20022;-72
2022/01/02 03:14:05;;;;;;;0.63;0.40;;;12.20;99.20;;;;;;9178329;19;20776;-73
2022/01/02 03:17:29;;;;;;;0.35;0.13;;;12.20;99.20;;;;;;9176851;19;20026;-73
2022/01/02 03:20:53;;;;;;;0.65;0.30;;;12.20;99.20;;;;;;9177793;19;20444;-72
2022/01/02 03:24:16;;;;;;;0.35;0.22;;;12.20;99.20;;;;;;9182514;19;20081;-73
2022/01/02 03:27:40;;;;;;;1.00;0.40;;;12.20;99.20;;;;;;9180589;19;20041;-73
2022/01/02 03:31:07;;;;;;;0.67;0.40;;;12.20;99.30;;;;;;9181228;19;20035;-73
2022/01/02 03:34:30;;;;;;;0.57;0.40;;;12.20;99.30;;;;;;9182012;19;20516;-73
2022/01/02 03:37:54;;;;;;;0.17;0.15;;;12.20;99.30;;;;;;9180243;19;21122;-73
2022/01/02 03:41:18;;;;;;;1.02;0.50;;;12.20;99.30;;;;;;9179853;19;20103;-73
2022/01/02 03:44:42;;;;;;;0.47;0.32;;;12.20;99.40;;;;;;9181012;19;20018;-73
2022/01/02 03:48:08;;;;;;;0.87;0.30;;;12.20;99.40;;;;;;9179434;19;20044;-73
2022/01/02 03:51:32;;;;;;;1.30;0.35;;;12.20;99.40;;;;;;9179007;19;20019;-73
2022/01/02 03:54:55;;;;;;;1.03;0.50;;;12.30;99.50;;;;;;9174915;19;20022;-73
2022/01/02 03:58:19;;;;;;;0.50;0.23;;;12.30;99.50;;;;;;9179185;19;20492;-73
2022/01/02 04:01:43;;;;;;;1.17;0.50;;;12.30;99.50;;;;;;9179119;19;20389;-73
2022/01/02 04:05:10;;;;;;;;;;;12.30;99.50;;;;;;9179961;19;20494;-73
2022/01/02 04:08:33;;;;;;;1.58;0.45;;;12.30;99.50;;;;;;9178741;19;19929;-73
2022/01/02 04:11:57;;;;;;;1.38;0.30;;;12.40;99.60;;;;;;9177565;19;20039;-73
2022/01/02 04:15:21;;;;;;;0.63;0.40;;;12.40;99.60;;;;;;9177394;19;20037;-73
2022/01/02 04:18:44;;;;;;;0.53;0.30;;;12.40;99.60;;;;;;9177512;19;20031;-73
2022/01/02 04:22:11;;;;;;;1.35;0.57;;;12.40;99.60;;;;;;9177080;19;20035;-74
2022/01/02 04:25:35;;;;;;;1.08;0.45;;;12.50;99.60;;;;;;9175876;19;20097;-73
2022/01/02 04:28:59;;;;;;;0.30;0.20;;;12.50;99.60;;;;;;9179892;19;20027;-73
2022/01/02 04:32:23;;;;;;;0.57;0.38;;;12.50;99.60;;;;;;9178869;19;20018;-73
2022/01/02 04:35:46;;;;;;;0.80;0.40;;;12.60;99.70;;;;;;9179133;19;20015;-73
2022/01/02 04:39:13;;;;;;;0.73;0.38;;;12.60;99.70;;;;;;9178297;19;20542;-73
2022/01/02 04:42:36;;;;;;;1.00;0.40;;;12.60;99.60;;;;;;9177642;19;20022;-73
2022/01/02 04:46:01;;;;;;;0.70;0.40;;;12.60;99.60;;;;;;9177813;19;20074;-73
2022/01/02 04:49:25;;;;;;;0.45;0.38;;;12.70;99.70;;;;;;9177051;19;20022;-72
2022/01/02 04:52:50;;;;;;;0.70;0.30;;;12.70;99.70;;;;;;9176700;19;20045;-73
2022/01/02 04:56:16;;;;;;;0.47;0.20;;;12.70;99.70;;;;;;9178040;19;20018;-73
2022/01/02 04:59:40;;;;;;;1.10;0.28;;;12.70;99.60;;;;;;9178299;19;20021;-73
2022/01/02 05:03:04;;;;;;;0.43;0.30;;;12.70;99.60;;;;;;9175630;19;20041;-73
2022/01/02 05:06:28;;;;;;;1.15;0.40;;;12.80;99.70;;;;;;9177103;19;20021;-73
2022/01/02 05:09:51;;;;;;;0.82;0.28;;;12.80;99.60;;;;;;9175456;19;20017;-72
2022/01/02 05:13:17;;;;;;;0.63;0.40;;;12.80;99.60;;;;;;9173685;19;20081;-72
2022/01/02 05:16:42;;;;;;;0.93;0.35;;;12.80;99.60;;;;;;9175604;19;20026;-72
2022/01/02 05:20:07;;;;;;;1.15;0.50;;;12.80;99.60;;;;;;9175392;19;20023;-73
2022/01/02 05:23:31;;;;;;;0.35;0.22;;;12.80;99.60;;;;;;9175167;19;20037;-73
2022/01/02 05:26:56;;;;;;;1.48;0.60;;;12.80;99.60;;;;;;9175976;19;20025;-73
2022/01/02 05:30:22;;;;;;;;;;;12.80;99.60;;;;;;9177796;19;20022;-73
2022/01/02 05:33:46;;;;;;;0.32;0.28;;;12.80;99.60;;;;;;9176754;19;19929;-72
2022/01/02 05:37:09;;;;;;;1.77;0.40;;;12.80;99.60;;;;;;9177861;19;20019;-73
2022/01/02 05:40:34;;;;;;;0.40;0.30;;;12.80;99.60;;;;;;9175397;19;20017;-73
2022/01/02 05:43:57;;;;;;;;;;;12.80;99.60;;;;;;9178308;19;20015;-73
2022/01/02 05:47:24;;;;;;;1.30;0.43;;;12.80;99.60;;;;;;9175381;19;19929;-73
2022/01/02 05:50:48;;;;;;;0.50;0.35;;;12.80;99.60;;;;;;9175002;19;20503;-73
2022/01/02 05:54:12;;;;;;;0.30;0.25;;;12.80;99.60;;;;;;9173453;19;20043;-73
2022/01/02 05:57:36;;;;;;;1.98;0.40;;;12.80;99.60;;;;;;9174137;19;20019;-73
2022/01/02 06:00:59;;;;;;;0.37;0.30;;;12.70;99.60;;;;;;9174610;19;20011;-73
2022/01/02 06:04:27;;;;;;;0.63;0.20;;;12.70;99.60;;;;;;9172953;19;20568;-73
2022/01/02 06:07:52;;;;;;;1.05;0.40;;;12.70;99.60;;;;;;9173746;19;20019;-73
2022/01/02 06:11:15;;;;;;;0.83;0.47;;;12.70;99.60;;;;;;9175217;19;20462;-73
2022/01/02 06:14:39;;;;;;;0.70;0.40;;;12.70;99.60;;;;;;9173389;19;20015;-73
2022/01/02 06:18:03;;;;;;;0.60;0.30;;;12.70;99.60;;;;;;9173261;19;20031;-73
2022/01/02 06:21:31;;;;;;;0.60;0.40;;;12.70;99.60;;;;;;9173321;19;20025;-73
2022/01/02 06:24:55;;;;;;;0.47;0.30;;;12.70;99.60;;;;;;9172964;19;20039;-72
2022/01/02 06:28:19;;;;;;;0.38;0.30;;;12.70;99.60;;;;;;9173353;19;20046;-73
2022/01/02 06:31:42;;;;;;;0.40;0.30;;;12.70;99.60;;;;;;9175281;19;20029;-73
2022/01/02 06:35:07;;;;;;;0.55;0.20;;;12.70;99.60;;;;;;9176361;19;21059;-74
2022/01/02 06:38:34;;;;;;;0.75;0.43;;;12.70;99.60;;;;;;9173957;19;20019;-73
2022/01/02 06:41:57;;;;;;;0.32;0.30;;;12.70;99.60;;;;;;9175685;19;20021;-73
2022/01/02 06:45:21;;;;;;;0.70;0.40;;;12.70;99.60;;;;;;9175632;19;20015;-74
2022/01/02 06:48:46;;;;;;;1.08;0.40;;;12.70;99.50;;;;;;9180374;19;20018;-73
2022/01/02 06:52:30;;;;;;;0.68;0.45;;;12.60;99.50;;;;;;9181247;19;20046;-73
2022/01/02 06:55:57;;;;;;;0.65;0.30;;;12.70;99.60;;;;;;9181876;19;20398;-73
2022/01/02 06:59:22;;;;;;;0.93;0.30;;;12.60;99.50;;;;;;9180272;19;20019;-74
2022/01/02 07:02:46;;;;;;;0.28;0.20;;;12.70;99.60;;;;;;9179994;19;20093;-73
2022/01/02 07:06:10;;;;;;;0.63;0.40;;;12.60;99.60;;;;;;9179786;19;20026;-74
2022/01/02 07:09:34;;;;;;;0.80;0.30;;;12.60;99.50;;;;;;9179465;19;20035;-74
2022/01/02 07:13:00;;;;;;;0.70;0.30;;;12.60;99.80;;;;;;9179453;19;20018;-74
2022/01/02 07:16:24;;;;;;;0.93;0.30;;;12.60;99.60;;;;;;9180865;19;20496;-73
2022/01/02 07:19:47;;;;;;;0.38;0.30;;;12.60;99.60;;;;;;9180466;19;20022;-74
2022/01/02 07:23:11;;;;;;;0.40;0.22;;;12.60;99.60;;;;;;9181179;19;20045;-73
2022/01/02 07:26:34;;;;;;;0.73;0.47;;;12.60;99.60;;;;;;9184689;19;20010;-73
2022/01/02 07:30:00;;;;;;;1.67;0.80;;;12.50;99.60;;;;;;9178739;19;20042;-73
2022/01/02 07:33:24;;;;;;;0.57;0.30;;;12.60;99.60;;;;;;9180867;19;20015;-73
2022/01/02 07:36:48;;;;;;;0.50;0.38;;;12.60;99.60;;;;;;9182859;19;20031;-73
2022/01/02 07:40:12;;;;;;;0.67;0.30;;;12.60;99.60;;;;;;9179881;19;20022;-73
2022/01/02 07:43:35;;;;;;;0.80;0.40;;;12.60;99.60;;;;;;9180896;19;20021;-74
2022/01/02 07:47:01;;;;;;;0.22;0.22;;;12.60;99.60;;;;;;9180711;19;20025;-74
2022/01/02 07:50:25;;;;;;;0.50;0.22;;;12.50;99.60;;;;;;9178908;19;20029;-72
2022/01/02 07:53:49;;;;;;;0.40;0.20;;;12.60;99.60;;;;;;9175347;19;20022;-73
2022/01/02 07:57:12;;;;;;;0.32;0.30;;;12.60;99.60;;;;;;9178446;19;20035;-74
2022/01/02 08:00:36;;;;;;;0.40;0.30;;;12.50;99.60;;;;;;9179929;19;20070;-72
2022/01/02 08:04:02;;;;;;;0.50;0.30;;;12.50;99.60;;;;;;9177824;19;20010;-73
2022/01/02 08:07:26;;;;;;;0.88;0.30;;;12.50;99.60;;;;;;9179662;19;20764;-73
2022/01/02 08:10:49;;;;;;;0.57;0.30;;;12.60;99.60;;;;;;9178488;19;20015;-73
2022/01/02 08:14:15;;;;;;;0.70;0.30;;;12.50;99.60;;;;;;9178004;19;20018;-73
2022/01/02 08:17:39;;;;;;;1.13;0.30;;;12.50;99.60;;;;;;9176377;19;20046;-73
2022/01/02 08:21:05;;;;;;;0.93;0.30;;;12.50;99.60;;;;;;9175127;19;20031;-73
2022/01/02 08:24:29;;;;;;;1.00;0.30;;;12.50;99.60;;;;;;9175628;19;20015;-73
2022/01/02 08:27:53;;;;;;;0.75;0.40;;;12.60;99.90;;;;;;9178593;19;20471;-73
2022/01/02 08:31:17;;;;;;;0.80;0.35;;;12.50;99.60;;;;;;9176644;19;20625;-73
2022/01/02 08:34:40;;;;;;;0.43;0.27;;;12.50;99.60;;;;;;9176488;19;20018;-73
2022/01/02 08:38:07;;;;;;;0.97;0.40;;;12.50;99.60;;;;;;9178564;19;20022;-73
2022/01/02 08:41:30;;;;;;;1.13;0.50;;;12.50;99.60;;;;;;9177188;19;20562;-73
2022/01/02 08:44:53;;;;;;;2.35;0.50;;;12.50;99.60;;;;;;9172174;19;20050;-73
2022/01/02 08:48:17;;;;;;;0.47;0.40;;;12.50;99.60;;;;;;9170929;19;20015;-73
2022/01/02 08:51:41;;;;;;;0.93;0.40;;;12.50;99.60;;;;;;9169071;19;20026;-73
2022/01/02 08:55:08;;;;;;;0.67;0.30;;;12.50;99.50;;;;;;9164176;19;20018;-72
2022/01/02 08:58:31;;;;;;;0.43;0.38;;;12.50;99.50;;;;;;9167312;19;20050;-73
2022/01/02 09:01:55;;;;;;;0.97;0.50;;;12.50;99.60;;;;;;9168759;19;20443;-73
2022/01/02 09:05:19;;;;;;;0.80;0.40;;;12.50;99.50;;;;;;9168898;19;20018;-73
2022/01/02 09:08:43;;;;;;;;;;;12.50;99.60;;;;;;9174606;19;20021;-73
2022/01/02 09:12:12;;;;;;;0.30;0.30;;;12.50;99.50;;;;;;9175165;19;20363;-73
2022/01/02 09:15:36;;;;;;;1.55;0.40;;;12.50;99.60;;;;;;9177252;19;20038;-73
2022/01/02 09:19:00;;;;;;;1.13;0.45;;;12.50;99.60;;;;;;9178056;19;20022;-73
2022/01/02 09:22:23;;;;;;;0.47;0.32;;;12.50;99.60;;;;;;9174789;19;20018;-72
2022/01/02 09:25:47;;;;;;;0.27;0.27;;;12.40;99.50;;;;;;9175044;19;20019;-73
2022/01/02 09:29:13;;;;;;;0.43;0.25;;;12.40;99.50;;;;;;9175936;19;20547;-73
2022/01/02 09:32:37;;;;;;;1.98;0.50;;;12.40;99.50;;;;;;9170238;19;20375;-73
2022/01/02 09:36:01;;;;;;;0.47;0.30;;;12.40;99.60;;;;;;9171828;19;20490;-73
2022/01/02 09:39:25;;;;;;;0.68;0.30;;;12.40;99.60;;;;;;9171321;19;20484;-72
2022/01/02 09:42:49;;;;;;;0.60;0.38;;;12.40;99.60;;;;;;9166203;19;20699;-73
2022/01/02 09:46:18;;;;;;;0.60;0.30;;;12.40;99.60;;;;;;9170011;19;20602;-74
2022/01/02 09:49:42;;;;;;;0.70;0.50;;;12.40;99.60;;;;;;9170395;19;20031;-73
2022/01/02 09:53:05;;;;;;;0.32;0.30;;;12.40;99.60;;;;;;9167334;19;20019;-73
2022/01/02 09:56:11;;;;;;;0.13;0.13;;;12.50;99.60;;;;;;9168128;19;20035;-73
2022/01/02 09:59:16;;;;;;;0.45;0.25;;;12.50;99.60;;;;;;9166765;19;20037;-72
2022/01/02 10:02:24;;;;;;;1.13;0.38;;;12.50;99.60;;;;;;9165721;19;20413;-73
2022/01/02 10:05:31;;;;;;;0.85;0.40;;;12.50;99.60;;;;;;9166852;19;20029;-72
2022/01/02 10:08:37;;;;;;;0.65;0.40;;;12.50;99.60;;;;;;9166497;19;20018;-73
2022/01/02 10:11:42;;;;;;;0.73;0.30;;;12.60;99.80;;;;;;9166660;19;20011;-73
2022/01/02 10:14:47;;;;;;;0.30;0.20;;;12.60;99.60;;;;;;9167906;19;20022;-73
2022/01/02 10:18:01;;;;;;;0.40;0.30;;;12.60;99.60;;;;;;9168933;19;20025;-73
2022/01/02 10:21:05;;;;;;;0.40;0.17;;;12.60;99.60;;;;;;9167346;19;20411;-73
2022/01/02 10:24:21;;;;;;;0.17;0.10;;;12.70;99.60;;;;;;9174355;19;20014;-72
2022/01/02 10:27:26;;;;;;;0.20;0.20;;;12.70;99.60;;;;;;9172233;19;20014;-72
2022/01/02 10:30:31;;;;;;;0.20;0.10;;;12.70;99.50;;;;;;9173825;19;20018;-73
2022/01/02 10:33:54;;;;;;;0.82;0.28;;;12.70;99.50;;;;;;9171574;19;20058;-73
2022/01/02 10:36:59;;;;;;;0.10;0.10;;;12.70;99.50;;;;;;9172702;19;20503;-73
2022/01/02 10:40:05;;;;;;;0.10;0.10;;;12.70;99.50;;;;;;9171717;19;20018;-72
2022/01/02 10:43:12;;;;;;;0.65;0.40;;;12.70;99.50;;;;;;9171977;19;20018;-73
2022/01/02 10:46:17;;;;;;;0.15;0.15;;;12.80;99.40;;;;;;9170961;19;20022;-72
2022/01/02 10:49:24;;;;;;;0.10;0.10;;;12.80;99.40;;;;;;9172581;19;20491;-73
2022/01/02 10:52:32;;;;;;;1.13;0.35;;;12.80;99.40;;;;;;9175861;19;20018;-73
2022/01/02 10:55:38;;;;;;;0.20;0.20;;;12.80;99.40;;;;;;9172891;19;20451;-73
2022/01/02 10:58:45;;;;;;;0.20;0.15;;;12.80;99.40;;;;;;9179108;19;20487;-73
2022/01/02 11:01:50;;;;;;;0.30;0.25;;;12.80;99.40;;;;;;9176021;19;20026;-73
2022/01/02 11:05:00;;;;;;;0.60;0.40;;;12.80;99.40;;;;;;9179730;19;20023;-72
2022/01/02 11:08:07;;;;;;;0.20;0.20;;;12.90;99.40;;;;;;9175382;19;20106;-73
2022/01/02 11:11:12;;;;;;;1.38;0.50;;;12.90;99.40;;;;;;9175259;19;20014;-73
2022/01/02 11:14:17;;;;;;;0.38;0.20;;;12.90;99.40;;;;;;9173527;19;20537;-73
2022/01/02 11:17:22;;;;;;;0.20;0.20;;;12.90;99.40;;;;;;9172765;19;20025;-73
2022/01/02 11:20:33;;;;;;;0.40;0.20;;;12.90;99.40;;;;;;9176144;19;20022;-72
2022/01/02 11:23:48;;;;;;;0.45;0.25;;;13.00;99.40;;;;;;9176552;19;20090;-72
2022/01/02 11:26:58;;;;;;;0.70;0.30;;;13.00;99.40;;;;;;9178178;19;20058;-73
2022/01/02 11:30:33;;;;;;;0.40;0.20;;;13.00;99.40;;;;;;9180114;19;20010;-73
2022/01/02 11:33:40;;;;;;;0.57;0.28;;;13.00;99.30;;;;;;9174675;19;20412;-73
2022/01/02 11:36:48;;;;;;;0.32;0.22;;;13.10;99.40;;;;;;9171483;19;20363;-73
2022/01/02 11:39:55;;;;;;;0.38;0.28;;;13.10;99.40;;;;;;9173608;19;20498;-73
2022/01/02 11:43:00;;;;;;;0.45;0.20;;;13.10;99.40;;;;;;9172408;19;20018;-75
2022/01/02 11:46:21;;;;;;;0.40;0.20;;;13.10;99.30;;;;;;9171010;19;20019;-73
2022/01/02 11:49:28;;;;;;;0.20;0.20;;;13.20;99.30;;;;;;9168784;19;20042;-75
2022/01/02 11:52:36;;;;;;;0.75;0.30;;;13.20;99.30;;;;;;9169989;19;20010;-73
2022/01/02 11:55:43;;;;;;;0.22;0.10;;;13.20;99.30;;;;;;9170419;19;20333;-73
2022/01/02 11:58:53;;;;;;;0.60;0.25;;;13.20;99.30;;;;;;9173363;19;20022;-74
2022/01/02 12:01:59;;;;;;;0.30;0.28;;;13.20;99.20;;;;;;9171689;19;20057;-74
2022/01/02 12:05:14;;;;;;;0.63;0.40;;;13.20;99.20;;;;;;9172309;19;20027;-75
2022/01/02 12:08:39;;;;;;;0.47;0.17;;;13.20;99.20;;;;;;9168539;19;20023;-73
2022/01/02 12:11:49;;;;;;;0.40;0.30;;;13.30;99.20;;;;;;9170530;19;20361;-72
2022/01/02 12:14:55;;;;;;;0.77;0.45;;;13.20;99.20;;;;;;9170278;19;20018;-73
2022/01/02 12:18:07;;;;;;;0.38;0.30;;;13.20;99.20;;;;;;9172327;19;20011;-74
2022/01/02 12:21:14;;;;;;;0.77;0.40;;;13.30;99.10;;;;;;9173593;19;20018;-72
2022/01/02 12:24:32;;;;;;;0.32;0.20;;;13.30;99.20;;;;;;9171538;19;20010;-74
2022/01/02 12:27:37;;;;;;;0.50;0.30;;;13.20;99.10;;;;;;9174548;19;20376;-74
2022/01/02 12:30:43;;;;;;;0.63;0.30;;;13.20;99.10;;;;;;9176202;19;20018;-74
2022/01/02 12:33:48;;;;;;;0.68;0.38;;;13.20;99.10;;;;;;9177018;19;20058;-74
2022/01/02 12:36:55;;;;;;;1.42;0.50;;;13.30;99.20;;;;;;9177865;19;20014;-75
2022/01/02 12:40:14;;;;;;;0.80;0.30;;;13.20;99.10;;;;;;9169593;19;20017;-74
2022/01/02 12:43:26;;;;;;;0.50;0.50;;;13.30;99.20;;;;;;9171850;19;20018;-73
2022/01/02 12:46:37;;;;;;;0.68;0.40;;;13.30;99.10;;;;;;9172716;19;20010;-75
2022/01/02 12:49:45;;;;;;;0.45;0.32;;;13.30;99.10;;;;;;9171518;19;20954;-75
2022/01/02 12:52:53;;;;;;;1.95;0.47;;;13.30;99.10;;;;;;9174003;19;20348;-74
2022/01/02 12:56:02;;;;;;;1.02;0.45;;;13.30;99.10;;;;;;9167167;19;20015;-73
2022/01/02 12:59:24;;;;;;;0.45;0.28;;;13.30;99.10;;;;;;9171685;19;20014;-74
2022/01/02 13:02:30;;;;;;;0.55;0.30;;;13.30;99.10;;;;;;9167439;19;20695;-75
2022/01/02 13:05:51;;;;;;;0.45;0.40;;;13.30;99.10;;;;;;9173265;19;20018;-75
2022/01/02 13:08:58;;;;;;;1.13;0.50;;;13.30;99.10;;;;;;9171117;19;20144;-75
2022/01/02 13:12:11;;;;;;;0.20;0.20;;;13.30;99.10;;;;;;9170964;19;20491;-75
2022/01/02 13:15:18;;;;;;;1.67;0.50;;;13.30;99.10;;;;;;9169415;19;20026;-74
2022/01/02 13:18:23;;;;;;;1.08;0.50;;;13.30;99.10;;;;;;9167164;19;20019;-74
2022/01/02 13:21:28;;;;;;;0.80;0.30;;;13.30;99.10;;;;;;9166490;19;20029;-74
2022/01/02 13:24:37;;;;;;;0.80;0.20;;;13.30;99.10;;;;;;9168378;19;20022;-74
2022/01/02 13:27:54;;;;;;;1.13;0.50;;;13.30;99.00;;;;;;9169324;19;20058;-75
2022/01/02 13:31:01;;;;;;;0.82;0.40;;;13.30;99.00;;;;;;9169753;19;20018;-74
2022/01/02 13:34:10;;;;;;;0.50;0.30;;;13.30;99.00;;;;;;9170049;19;20111;-75
2022/01/02 13:37:15;;;;;;;0.70;0.40;;;13.30;99.00;;;;;;9172023;19;20022;-75
2022/01/02 13:40:29;;;;;;;0.77;0.40;;;13.30;99.00;;;;;;9173406;19;20377;-75
2022/01/02 13:43:36;;;;;;;0.30;0.30;;;13.30;98.90;;;;;;9172161;19;20029;-74
2022/01/02 13:46:52;;;;;;;0.30;0.30;;;13.30;98.90;;;;;;9175920;19;20898;-75
2022/01/02 13:49:57;;;;;;;0.25;0.20;;;13.30;98.90;;;;;;9176352;19;20015;-75
2022/01/02 13:53:04;;;;;;;0.57;0.30;;;13.30;98.90;;;;;;9173263;19;20402;-74
2022/01/02 13:56:15;;;;;;;0.70;0.38;;;13.40;98.90;;;;;;9178396;19;20023;-75
2022/01/02 13:59:29;;;;;;;0.85;0.38;;;13.30;98.90;;;;;;9184681;19;20014;-74
2022/01/02 14:02:41;;;;;;;0.90;0.30;;;13.30;98.80;;;;;;9183229;19;20019;-74
2022/01/02 14:05:48;;;;;;;0.28;0.28;;;13.30;98.80;;;;;;9184124;19;20022;-74
2022/01/02 14:08:53;;;;;;;0.63;0.30;;;13.30;98.80;;;;;;9184010;19;20022;-74
2022/01/02 14:11:58;;;;;;;0.60;0.30;;;13.30;98.80;;;;;;9183665;19;20360;-76
2022/01/02 14:15:21;;;;;;;0.57;0.30;;;13.30;98.80;;;;;;9183985;19;20039;-75
2022/01/02 14:18:30;;;;;;;0.10;0.05;;;13.30;98.70;;;;;;9184853;19;20482;-75
2022/01/02 14:21:35;;;;;;;0.68;0.43;;;13.30;98.70;;;;;;9184795;19;20417;-75
2022/01/02 14:24:41;;;;;;;0.50;0.20;;;13.30;98.70;;;;;;9183023;19;20014;-75
2022/01/02 14:27:49;;;;;;;0.70;0.30;;;13.30;98.70;;;;;;9184015;19;20019;-75
2022/01/02 14:30:57;;;;;;;0.70;0.40;;;13.30;98.70;;;;;;9182706;19;20015;-75
2022/01/02 14:34:03;;;;;;;0.73;0.30;;;13.30;98.70;;;;;;9183827;19;20014;-75
2022/01/02 14:37:08;;;;;;;0.63;0.20;;;13.30;98.70;;;;;;9185350;19;20014;-76
2022/01/02 14:40:14;;;;;;;0.45;0.30;;;13.30;98.60;;;;;;9184427;19;20039;-75
2022/01/02 14:43:19;;;;;;;1.20;0.40;;;13.30;98.60;;;;;;9184705;19;20018;-75
2022/01/02 14:46:26;;;;;;;1.27;0.30;;;13.30;98.60;;;;;;9183675;19;20364;-76
2022/01/02 14:49:32;;;;;;;0.75;0.40;;;13.30;98.60;;;;;;9185692;19;20337;-75
2022/01/02 14:52:38;;;;;;;0.68;0.20;;;13.30;98.50;;;;;;9183652;19;20011;-75
2022/01/02 14:55:43;;;;;;;0.75;0.30;;;13.30;98.50;;;;;;9181510;19;20015;-75
2022/01/02 14:58:49;;;;;;;0.73;0.20;;;13.30;98.50;;;;;;9186010;19;20023;-75
2022/01/02 15:01:57;;;;;;;1.10;0.43;;;13.30;98.50;;;;;;9183711;19;20463;-76
2022/01/02 15:05:02;;;;;;;1.33;0.30;;;13.30;98.40;;;;;;9180325;19;20014;-76
2022/01/02 15:08:07;;;;;;;0.20;0.10;;;13.30;98.40;;;;;;9179057;19;20467;-75
2022/01/02 15:11:13;;;;;;;0.73;0.32;;;13.30;98.40;;;;;;9179490;19;20023;-74
2022/01/02 15:14:18;;;;;;;0.60;0.20;;;13.30;98.40;;;;;;9181463;19;20010;-75
2022/01/02 15:17:26;;;;;;;0.57;0.20;;;13.30;98.40;;;;;;9181570;19;20025;-76
2022/01/02 15:20:31;;;;;;;0.30;0.20;;;13.30;98.40;;;;;;9179977;19;20029;-76
2022/01/02 15:23:37;;;;;;;0.60;0.30;;;13.20;98.40;;;;;;9181651;19;20023;-75
2022/01/02 15:26:42;;;;;;;1.55;0.70;;;13.20;98.40;;;;;;9180463;19;20520;-76
2022/01/02 15:29:47;;;;;;;0.52;0.20;;;13.30;98.40;;;;;;9182040;19;20368;-76
2022/01/02 15:32:54;;;;;;;0.40;0.30;;;13.20;98.30;;;;;;9181368;19;20030;-76
2022/01/02 15:35:59;;;;;;;0.65;0.43;;;13.30;98.30;;;;;;9181069;19;20018;-76
2022/01/02 15:39:05;;;;;;;1.15;0.50;;;13.20;98.30;;;;;;9183370;19;20025;-75
2022/01/02 15:42:10;;;;;;;1.15;0.57;;;13.20;98.30;;;;;;9182049;19;20021;-75
2022/01/02 15:45:15;;;;;;;1.05;0.47;;;13.20;98.30;;;;;;9182613;19;20011;-75
2022/01/02 15:48:23;;;;;;;1.52;0.40;;;13.20;98.20;;;;;;9180359;19;20015;-76
2022/01/02 15:51:28;;;;;;;0.95;0.50;;;13.20;98.20;;;;;;9181258;19;20021;-76
2022/01/02 15:54:34;;;;;;;1.15;0.40;;;13.10;98.20;;;;;;9178123;19;20010;-76
2022/01/02 15:57:39;;;;;;;1.20;0.47;;;13.10;98.10;;;;;;9181357;19;21454;-75
2022/01/02 16:00:44;;;;;;;1.10;0.50;;;13.10;98.20;;;;;;9180713;19;20034;-75
2022/01/02 16:03:52;;;;;;;1.15;0.50;;;13.00;98.10;;;;;;9181779;19;20014;-75
2022/01/02 16:06:57;;;;;;;1.10;0.38;;;13.10;98.10;;;;;;9180335;19;20029;-76
2022/01/02 16:10:02;;;;;;;1.65;0.80;;;13.00;98.10;;;;;;9180029;19;20014;-74
2022/01/02 16:13:07;;;;;;;1.60;0.70;;;13.00;98.10;;;;;;9177689;19;20360;-76
2022/01/02 16:16:12;;;;;;;1.70;0.55;;;13.00;98.10;;;;;;9178147;19;20052;-76
2022/01/02 16:19:20;;;;;;;1.42;0.70;;;12.90;98.10;;;;;;9177290;19;20034;-76
2022/01/02 16:22:25;;;;;;;1.55;0.73;;;12.90;98.10;;;;;;9179229;19;20048;-75
2022/01/02 16:25:30;;;;;;;1.17;0.60;;;12.90;98.10;;;;;;9177598;19;20398;-76
2022/01/02 16:28:35;;;;;;;1.08;0.60;;;12.90;98.10;;;;;;9177848;19;20085;-76
2022/01/02 16:31:40;;;;;;;1.15;0.50;;;12.80;98.10;;;;;;9177628;19;20014;-75
2022/01/02 16:34:51;;;;;;;0.82;0.43;;;12.80;98.10;;;;;;9179137;19;20026;-75
2022/01/02 16:37:56;;;;;;;1.15;0.50;;;12.80;98.10;;;;;;9177273;19;20022;-75
2022/01/02 16:41:01;;;;;;;1.05;0.60;;;12.80;98.10;;;;;;9177704;19;20014;-75
2022/01/02 16:44:07;;;;;;;0.60;0.30;;;12.70;98.10;;;;;;9177542;19;20372;-76
2022/01/02 16:47:12;;;;;;;1.50;0.65;;;12.70;98.10;;;;;;9179100;19;20085;-75
2022/01/02 16:50:19;;;;;;;1.33;0.52;;;12.70;98.10;;;;;;9177310;19;20087;-76
2022/01/02 16:53:24;;;;;;;1.08;0.68;;;12.60;98.00;;;;;;9174254;19;20022;-75
2022/01/02 16:56:31;;;;;;;1.13;0.43;;;12.70;98.10;;;;;;9179157;19;20032;-75
2022/01/02 16:59:36;;;;;;;1.75;0.65;;;12.60;98.10;;;;;;9179308;19;20021;-76
2022/01/02 17:02:45;;;;;;;1.02;0.40;;;12.60;98.10;;;;;;9177525;19;20014;-76
2022/01/02 17:05:54;;;;;;;1.17;0.55;;;12.60;98.10;;;;;;9177494;19;20479;-76
2022/01/02 17:08:59;;;;;;;1.35;0.60;;;12.60;98.10;;;;;;9176517;19;20017;-75
2022/01/02 17:12:04;;;;;;;1.70;0.70;;;12.50;98.10;;;;;;9179052;19;20006;-77